Aeroporto :
LOGIN :

Iscrizione | Disclaimer

   EN    FR    IT 

 










Sommario :    VFR   VFR Marginale   IFR   IFR Intensivo   IFR Molto Intensivo
Visibilità : 
Base nubi : 
>= 8 km
>= 3000ft
5 / 8 km
1000 / 3000 ft
1500m / 5 km
500 / 1000 ft
800 / 1500m
200 / 500 ft
< 800m
< 200 ft
Simboli :   Temporali  Nebbia  Neve Forte  Precipitazioni Forti  Vento > 20 kt
SIGMETs :   Varie  Temporali  Ghiacco  Turbolenza  Onda orograficha  Ceneri Vulcaniche






- Altitudine del aeroporto : 291 ft
- Codice IATA : ORY


LFPO - Paris-Orly

ULTIMO METAR :
  • 122130Z 24007KT CAVOK 03/02 Q1003 NOSIG

METARs OBSOLETI :
  • 122100Z 21005KT 190V250 CAVOK 04/02 Q1003 NOSIG
  • 122030Z 22003KT 190V250 CAVOK 04/02 Q1003 NOSIG
  • 122000Z 22005KT 9999 FEW046 03/02 Q1003 NOSIG
  • 121930Z 23005KT CAVOK 04/02 Q1003 NOSIG
  • 121900Z 23007KT CAVOK 04/02 Q1003 NOSIG

TAF TAF LFPO
Valido dal 12 a 18 ore il 14 a 00 ore UTC


121700Z 1218/1324 23006KT CAVOK
TEMPO 1222/1303 4000 -SHRA
PROB30
TEMPO 1305/1308 4000 BR BKN007
PROB30
TEMPO 1311/1318 4000 -SHRA SCT015TCU
BECMG 1318/1320 BKN010
TEMPO 1322/1324 16015G25KT 3000 RA BKN009
ATIS : +33 1 49 75 65 80



MetMap, La meteo Aeronautica in un colpo d'occhio ! - Copyright ORBIFLY Dicembre 2007 - Disclaimer

ORBIFLY MET'MAP TEAM :

Programmazione e sviluppo : Alexandra Zaïnal
Concezione e sviluppo : Baudouin d'Aumeries
Co-Programmazione e sviluppo : Marc-Olivier Méhu
Supporto tecnico e logistico : Manuel Goepfert
Aiuto per la traduzione : Arnaldo La Scala

Contatto : metmap@orbifly.com




FONTI E CREDITI :

   NOAA